sensor_id;sensor_type;location;lat;lon;timestamp;P1;durP1;ratioP1;P2;durP2;ratioP2
3647;SDS011;1840;48.892;15.312;2023-09-30T00:02:19;18.33;;;9.80;;
3647;SDS011;1840;48.892;15.312;2023-09-30T00:04:49;18.97;;;9.30;;
3647;SDS011;1840;48.892;15.312;2023-09-30T00:07:17;18.33;;;9.80;;
3647;SDS011;1840;48.892;15.312;2023-09-30T00:09:45;14.50;;;8.80;;
3647;SDS011;1840;48.892;15.312;2023-09-30T00:12:14;13.03;;;8.20;;
3647;SDS011;1840;48.892;15.312;2023-09-30T00:14:42;22.50;;;10.60;;
3647;SDS011;1840;48.892;15.312;2023-09-30T00:17:10;16.27;;;9.20;;
3647;SDS011;1840;48.892;15.312;2023-09-30T00:19:38;15.10;;;8.77;;
3647;SDS011;1840;48.892;15.312;2023-09-30T00:22:07;12.70;;;8.43;;
3647;SDS011;1840;48.892;15.312;2023-09-30T00:24:35;18.83;;;8.90;;
3647;SDS011;1840;48.892;15.312;2023-09-30T00:27:03;28.27;;;9.60;;
3647;SDS011;1840;48.892;15.312;2023-09-30T00:29:31;16.37;;;9.73;;
3647;SDS011;1840;48.892;15.312;2023-09-30T00:31:59;15.47;;;8.30;;
3647;SDS011;1840;48.892;15.312;2023-09-30T00:34:27;20.43;;;9.40;;
3647;SDS011;1840;48.892;15.312;2023-09-30T00:36:56;22.93;;;10.93;;
3647;SDS011;1840;48.892;15.312;2023-09-30T00:39:25;15.47;;;8.87;;
3647;SDS011;1840;48.892;15.312;2023-09-30T00:41:56;15.33;;;9.83;;
3647;SDS011;1840;48.892;15.312;2023-09-30T00:44:25;20.53;;;8.60;;
3647;SDS011;1840;48.892;15.312;2023-09-30T00:46:54;21.97;;;9.67;;
3647;SDS011;1840;48.892;15.312;2023-09-30T00:49:23;18.93;;;9.50;;
3647;SDS011;1840;48.892;15.312;2023-09-30T00:51:52;24.33;;;10.73;;
3647;SDS011;1840;48.892;15.312;2023-09-30T00:54:21;20.63;;;9.80;;
3647;SDS011;1840;48.892;15.312;2023-09-30T00:56:53;13.97;;;8.50;;
3647;SDS011;1840;48.892;15.312;2023-09-30T00:59:23;14.00;;;8.17;;
3647;SDS011;1840;48.892;15.312;2023-09-30T01:01:53;16.93;;;8.57;;
3647;SDS011;1840;48.892;15.312;2023-09-30T01:04:24;14.03;;;8.53;;
3647;SDS011;1840;48.892;15.312;2023-09-30T01:06:54;14.70;;;9.07;;
3647;SDS011;1840;48.892;15.312;2023-09-30T01:09:23;13.53;;;8.67;;
3647;SDS011;1840;48.892;15.312;2023-09-30T01:11:53;12.80;;;8.10;;
3647;SDS011;1840;48.892;15.312;2023-09-30T01:14:24;15.60;;;9.43;;
3647;SDS011;1840;48.892;15.312;2023-09-30T01:16:56;15.43;;;7.93;;
3647;SDS011;1840;48.892;15.312;2023-09-30T01:19:25;14.37;;;8.30;;
3647;SDS011;1840;48.892;15.312;2023-09-30T01:21:55;14.97;;;9.17;;
3647;SDS011;1840;48.892;15.312;2023-09-30T01:24:25;12.27;;;8.60;;
3647;SDS011;1840;48.892;15.312;2023-09-30T01:26:53;17.47;;;8.17;;
3647;SDS011;1840;48.892;15.312;2023-09-30T01:29:22;16.60;;;8.83;;
3647;SDS011;1840;48.892;15.312;2023-09-30T01:31:52;17.87;;;9.00;;
3647;SDS011;1840;48.892;15.312;2023-09-30T01:34:20;16.40;;;9.10;;
3647;SDS011;1840;48.892;15.312;2023-09-30T01:36:48;16.27;;;8.87;;
3647;SDS011;1840;48.892;15.312;2023-09-30T01:39:17;12.70;;;7.77;;
3647;SDS011;1840;48.892;15.312;2023-09-30T01:41:48;13.90;;;9.07;;
3647;SDS011;1840;48.892;15.312;2023-09-30T01:44:16;17.73;;;8.93;;
3647;SDS011;1840;48.892;15.312;2023-09-30T01:46:44;15.60;;;8.07;;
3647;SDS011;1840;48.892;15.312;2023-09-30T01:49:12;23.90;;;8.50;;
3647;SDS011;1840;48.892;15.312;2023-09-30T01:51:40;25.10;;;9.10;;
3647;SDS011;1840;48.892;15.312;2023-09-30T01:54:08;16.50;;;8.93;;
3647;SDS011;1840;48.892;15.312;2023-09-30T01:56:38;16.63;;;7.00;;
3647;SDS011;1840;48.892;15.312;2023-09-30T01:59:06;12.80;;;7.00;;
3647;SDS011;1840;48.892;15.312;2023-09-30T02:01:34;12.40;;;7.20;;
3647;SDS011;1840;48.892;15.312;2023-09-30T02:04:02;11.63;;;6.73;;
3647;SDS011;1840;48.892;15.312;2023-09-30T02:06:32;12.63;;;6.40;;
3647;SDS011;1840;48.892;15.312;2023-09-30T02:09:01;17.20;;;8.20;;
3647;SDS011;1840;48.892;15.312;2023-09-30T02:11:29;11.80;;;6.27;;
3647;SDS011;1840;48.892;15.312;2023-09-30T02:13:59;17.00;;;7.77;;
3647;SDS011;1840;48.892;15.312;2023-09-30T02:16:27;14.53;;;7.30;;
3647;SDS011;1840;48.892;15.312;2023-09-30T02:18:56;12.40;;;7.17;;
3647;SDS011;1840;48.892;15.312;2023-09-30T02:21:25;10.60;;;6.93;;
3647;SDS011;1840;48.892;15.312;2023-09-30T02:23:54;13.10;;;6.77;;
3647;SDS011;1840;48.892;15.312;2023-09-30T02:26:23;10.93;;;6.40;;
3647;SDS011;1840;48.892;15.312;2023-09-30T02:28:52;14.07;;;7.63;;
3647;SDS011;1840;48.892;15.312;2023-09-30T02:31:21;11.50;;;6.70;;
3647;SDS011;1840;48.892;15.312;2023-09-30T02:33:50;14.70;;;7.13;;
3647;SDS011;1840;48.892;15.312;2023-09-30T02:36:18;12.70;;;7.03;;
3647;SDS011;1840;48.892;15.312;2023-09-30T02:38:46;14.03;;;8.10;;
3647;SDS011;1840;48.892;15.312;2023-09-30T02:41:15;13.90;;;8.20;;
3647;SDS011;1840;48.892;15.312;2023-09-30T02:43:43;16.63;;;7.93;;
3647;SDS011;1840;48.892;15.312;2023-09-30T02:46:11;12.63;;;7.80;;
3647;SDS011;1840;48.892;15.312;2023-09-30T02:48:41;14.23;;;7.07;;
3647;SDS011;1840;48.892;15.312;2023-09-30T02:51:09;17.67;;;10.10;;
3647;SDS011;1840;48.892;15.312;2023-09-30T02:53:38;13.33;;;7.67;;
3647;SDS011;1840;48.892;15.312;2023-09-30T02:56:06;14.60;;;8.20;;
3647;SDS011;1840;48.892;15.312;2023-09-30T02:58:34;21.77;;;8.20;;
3647;SDS011;1840;48.892;15.312;2023-09-30T03:01:02;15.13;;;8.03;;
3647;SDS011;1840;48.892;15.312;2023-09-30T03:03:31;14.87;;;8.33;;
3647;SDS011;1840;48.892;15.312;2023-09-30T03:06:01;16.60;;;9.00;;
3647;SDS011;1840;48.892;15.312;2023-09-30T03:08:29;16.87;;;9.03;;
3647;SDS011;1840;48.892;15.312;2023-09-30T03:10:57;12.00;;;7.60;;
3647;SDS011;1840;48.892;15.312;2023-09-30T03:13:25;18.53;;;8.97;;
3647;SDS011;1840;48.892;15.312;2023-09-30T03:15:53;16.27;;;8.80;;
3647;SDS011;1840;48.892;15.312;2023-09-30T03:18:23;22.60;;;9.47;;
3647;SDS011;1840;48.892;15.312;2023-09-30T03:21:01;15.17;;;8.47;;
3647;SDS011;1840;48.892;15.312;2023-09-30T03:23:40;16.63;;;9.43;;
3647;SDS011;1840;48.892;15.312;2023-09-30T03:26:08;16.37;;;9.37;;
3647;SDS011;1840;48.892;15.312;2023-09-30T03:28:36;18.47;;;8.67;;
3647;SDS011;1840;48.892;15.312;2023-09-30T03:31:05;20.10;;;9.57;;
3647;SDS011;1840;48.892;15.312;2023-09-30T03:33:33;19.87;;;10.47;;
3647;SDS011;1840;48.892;15.312;2023-09-30T03:36:03;20.20;;;10.63;;
3647;SDS011;1840;48.892;15.312;2023-09-30T03:38:32;21.53;;;10.40;;
3647;SDS011;1840;48.892;15.312;2023-09-30T03:41:00;24.43;;;11.80;;
3647;SDS011;1840;48.892;15.312;2023-09-30T03:43:28;23.73;;;10.40;;
3647;SDS011;1840;48.892;15.312;2023-09-30T03:45:56;26.33;;;11.53;;
3647;SDS011;1840;48.892;15.312;2023-09-30T03:48:24;24.30;;;10.27;;
3647;SDS011;1840;48.892;15.312;2023-09-30T03:50:52;19.70;;;10.20;;
3647;SDS011;1840;48.892;15.312;2023-09-30T03:53:22;25.70;;;11.07;;
3647;SDS011;1840;48.892;15.312;2023-09-30T03:55:52;30.70;;;12.53;;
3647;SDS011;1840;48.892;15.312;2023-09-30T03:58:21;21.60;;;11.00;;
3647;SDS011;1840;48.892;15.312;2023-09-30T04:00:49;24.10;;;11.73;;
3647;SDS011;1840;48.892;15.312;2023-09-30T04:03:18;29.63;;;12.40;;
3647;SDS011;1840;48.892;15.312;2023-09-30T04:05:46;30.67;;;12.03;;
3647;SDS011;1840;48.892;15.312;2023-09-30T04:08:17;34.07;;;14.93;;
3647;SDS011;1840;48.892;15.312;2023-09-30T04:10:47;25.67;;;11.83;;
3647;SDS011;1840;48.892;15.312;2023-09-30T04:13:15;27.37;;;12.97;;
3647;SDS011;1840;48.892;15.312;2023-09-30T04:15:44;39.77;;;15.30;;
3647;SDS011;1840;48.892;15.312;2023-09-30T04:18:15;27.53;;;12.40;;
3647;SDS011;1840;48.892;15.312;2023-09-30T04:20:46;34.70;;;13.17;;
3647;SDS011;1840;48.892;15.312;2023-09-30T04:23:14;30.30;;;11.63;;
3647;SDS011;1840;48.892;15.312;2023-09-30T04:25:43;29.83;;;12.60;;
3647;SDS011;1840;48.892;15.312;2023-09-30T04:28:12;33.07;;;14.10;;
3647;SDS011;1840;48.892;15.312;2023-09-30T04:30:42;29.23;;;12.97;;
3647;SDS011;1840;48.892;15.312;2023-09-30T04:33:10;35.70;;;13.03;;
3647;SDS011;1840;48.892;15.312;2023-09-30T04:35:39;29.93;;;12.40;;
3647;SDS011;1840;48.892;15.312;2023-09-30T04:38:08;33.53;;;12.97;;
3647;SDS011;1840;48.892;15.312;2023-09-30T04:40:37;24.27;;;10.90;;
3647;SDS011;1840;48.892;15.312;2023-09-30T04:43:05;37.40;;;13.00;;
3647;SDS011;1840;48.892;15.312;2023-09-30T04:45:34;31.87;;;11.70;;
3647;SDS011;1840;48.892;15.312;2023-09-30T04:48:03;31.20;;;13.20;;
3647;SDS011;1840;48.892;15.312;2023-09-30T04:50:31;41.17;;;13.93;;
3647;SDS011;1840;48.892;15.312;2023-09-30T04:52:59;31.47;;;12.57;;
3647;SDS011;1840;48.892;15.312;2023-09-30T04:55:28;30.70;;;12.30;;
3647;SDS011;1840;48.892;15.312;2023-09-30T04:57:56;34.43;;;12.27;;
3647;SDS011;1840;48.892;15.312;2023-09-30T05:00:24;25.37;;;12.20;;
3647;SDS011;1840;48.892;15.312;2023-09-30T05:02:56;26.20;;;11.87;;
3647;SDS011;1840;48.892;15.312;2023-09-30T05:05:25;33.90;;;11.93;;
3647;SDS011;1840;48.892;15.312;2023-09-30T05:07:54;30.87;;;12.03;;
3647;SDS011;1840;48.892;15.312;2023-09-30T05:10:24;31.07;;;12.40;;
3647;SDS011;1840;48.892;15.312;2023-09-30T05:12:52;26.13;;;11.33;;
3647;SDS011;1840;48.892;15.312;2023-09-30T05:15:21;40.70;;;15.20;;
3647;SDS011;1840;48.892;15.312;2023-09-30T05:17:49;34.63;;;13.63;;
3647;SDS011;1840;48.892;15.312;2023-09-30T05:20:19;35.33;;;13.63;;
3647;SDS011;1840;48.892;15.312;2023-09-30T05:22:47;37.10;;;13.77;;
3647;SDS011;1840;48.892;15.312;2023-09-30T05:25:16;29.50;;;11.93;;
3647;SDS011;1840;48.892;15.312;2023-09-30T05:27:45;27.63;;;11.47;;
3647;SDS011;1840;48.892;15.312;2023-09-30T05:30:15;34.63;;;13.20;;
3647;SDS011;1840;48.892;15.312;2023-09-30T05:32:46;32.73;;;12.60;;
3647;SDS011;1840;48.892;15.312;2023-09-30T05:35:15;33.27;;;13.00;;
3647;SDS011;1840;48.892;15.312;2023-09-30T05:37:45;30.27;;;13.17;;
3647;SDS011;1840;48.892;15.312;2023-09-30T05:40:13;30.10;;;12.10;;
3647;SDS011;1840;48.892;15.312;2023-09-30T05:42:49;32.07;;;11.40;;
3647;SDS011;1840;48.892;15.312;2023-09-30T05:45:18;29.00;;;12.63;;
3647;SDS011;1840;48.892;15.312;2023-09-30T05:47:47;26.30;;;10.83;;
3647;SDS011;1840;48.892;15.312;2023-09-30T05:50:17;30.63;;;12.57;;
3647;SDS011;1840;48.892;15.312;2023-09-30T05:52:52;29.03;;;11.20;;
3647;SDS011;1840;48.892;15.312;2023-09-30T05:55:21;26.93;;;11.80;;
3647;SDS011;1840;48.892;15.312;2023-09-30T05:57:52;34.80;;;12.50;;
3647;SDS011;1840;48.892;15.312;2023-09-30T06:00:21;33.73;;;12.90;;
3647;SDS011;1840;48.892;15.312;2023-09-30T06:02:54;35.17;;;14.03;;
3647;SDS011;1840;48.892;15.312;2023-09-30T06:05:22;29.10;;;11.80;;
3647;SDS011;1840;48.892;15.312;2023-09-30T06:07:53;28.87;;;12.30;;
3647;SDS011;1840;48.892;15.312;2023-09-30T06:10:21;33.80;;;12.73;;
3647;SDS011;1840;48.892;15.312;2023-09-30T06:12:50;31.37;;;13.27;;
3647;SDS011;1840;48.892;15.312;2023-09-30T06:15:22;30.00;;;11.20;;
3647;SDS011;1840;48.892;15.312;2023-09-30T06:17:53;32.90;;;12.17;;
3647;SDS011;1840;48.892;15.312;2023-09-30T06:20:22;31.70;;;11.50;;
3647;SDS011;1840;48.892;15.312;2023-09-30T06:22:54;34.93;;;12.90;;
3647;SDS011;1840;48.892;15.312;2023-09-30T06:25:23;29.90;;;11.40;;
3647;SDS011;1840;48.892;15.312;2023-09-30T06:27:52;29.90;;;12.80;;
3647;SDS011;1840;48.892;15.312;2023-09-30T06:30:21;35.10;;;13.03;;
3647;SDS011;1840;48.892;15.312;2023-09-30T06:32:56;34.10;;;11.60;;
3647;SDS011;1840;48.892;15.312;2023-09-30T06:35:26;34.23;;;12.30;;
3647;SDS011;1840;48.892;15.312;2023-09-30T06:37:57;30.60;;;11.67;;
3647;SDS011;1840;48.892;15.312;2023-09-30T06:40:25;41.00;;;13.87;;
3647;SDS011;1840;48.892;15.312;2023-09-30T06:42:53;29.80;;;11.20;;
3647;SDS011;1840;48.892;15.312;2023-09-30T06:45:21;29.37;;;12.03;;
3647;SDS011;1840;48.892;15.312;2023-09-30T06:47:50;28.20;;;11.77;;
3647;SDS011;1840;48.892;15.312;2023-09-30T06:50:18;35.67;;;12.33;;
3647;SDS011;1840;48.892;15.312;2023-09-30T06:52:48;30.47;;;11.43;;
3647;SDS011;1840;48.892;15.312;2023-09-30T06:55:18;32.80;;;11.93;;
3647;SDS011;1840;48.892;15.312;2023-09-30T06:57:46;32.90;;;12.23;;
3647;SDS011;1840;48.892;15.312;2023-09-30T07:00:14;33.57;;;12.83;;
3647;SDS011;1840;48.892;15.312;2023-09-30T07:02:43;29.37;;;11.50;;
3647;SDS011;1840;48.892;15.312;2023-09-30T07:05:13;28.73;;;11.97;;
3647;SDS011;1840;48.892;15.312;2023-09-30T07:07:42;35.40;;;12.83;;
3647;SDS011;1840;48.892;15.312;2023-09-30T07:10:11;49.00;;;14.60;;
3647;SDS011;1840;48.892;15.312;2023-09-30T07:12:42;28.33;;;12.13;;
3647;SDS011;1840;48.892;15.312;2023-09-30T07:15:10;35.93;;;12.97;;
3647;SDS011;1840;48.892;15.312;2023-09-30T07:17:40;29.00;;;10.93;;
3647;SDS011;1840;48.892;15.312;2023-09-30T07:20:11;28.07;;;11.40;;
3647;SDS011;1840;48.892;15.312;2023-09-30T07:22:39;32.90;;;12.87;;
3647;SDS011;1840;48.892;15.312;2023-09-30T07:25:24;32.33;;;10.83;;
3647;SDS011;1840;48.892;15.312;2023-09-30T07:27:54;29.03;;;13.23;;
3647;SDS011;1840;48.892;15.312;2023-09-30T07:30:22;27.73;;;11.70;;
3647;SDS011;1840;48.892;15.312;2023-09-30T07:32:50;28.97;;;13.17;;
3647;SDS011;1840;48.892;15.312;2023-09-30T07:35:19;27.67;;;10.63;;
3647;SDS011;1840;48.892;15.312;2023-09-30T07:37:47;33.87;;;12.13;;
3647;SDS011;1840;48.892;15.312;2023-09-30T07:40:18;32.10;;;12.07;;
3647;SDS011;1840;48.892;15.312;2023-09-30T07:42:47;33.53;;;11.53;;
3647;SDS011;1840;48.892;15.312;2023-09-30T07:45:17;30.63;;;12.37;;
3647;SDS011;1840;48.892;15.312;2023-09-30T07:47:46;28.57;;;11.90;;
3647;SDS011;1840;48.892;15.312;2023-09-30T07:50:15;26.20;;;11.00;;
3647;SDS011;1840;48.892;15.312;2023-09-30T07:52:44;26.17;;;10.47;;
3647;SDS011;1840;48.892;15.312;2023-09-30T07:55:13;29.43;;;11.90;;
3647;SDS011;1840;48.892;15.312;2023-09-30T07:57:42;31.73;;;12.23;;
3647;SDS011;1840;48.892;15.312;2023-09-30T08:00:11;24.07;;;10.53;;
3647;SDS011;1840;48.892;15.312;2023-09-30T08:02:44;36.60;;;12.43;;
3647;SDS011;1840;48.892;15.312;2023-09-30T08:05:12;30.87;;;12.13;;
3647;SDS011;1840;48.892;15.312;2023-09-30T08:07:40;29.67;;;10.87;;
3647;SDS011;1840;48.892;15.312;2023-09-30T08:10:09;30.30;;;11.90;;
3647;SDS011;1840;48.892;15.312;2023-09-30T08:12:40;31.30;;;11.80;;
3647;SDS011;1840;48.892;15.312;2023-09-30T08:15:09;29.20;;;11.53;;
3647;SDS011;1840;48.892;15.312;2023-09-30T08:17:39;39.13;;;11.97;;
3647;SDS011;1840;48.892;15.312;2023-09-30T08:20:10;29.57;;;11.27;;
3647;SDS011;1840;48.892;15.312;2023-09-30T08:22:40;25.87;;;10.37;;
3647;SDS011;1840;48.892;15.312;2023-09-30T08:25:08;28.73;;;10.97;;
3647;SDS011;1840;48.892;15.312;2023-09-30T08:27:37;30.20;;;11.30;;
3647;SDS011;1840;48.892;15.312;2023-09-30T08:30:06;24.27;;;10.00;;
3647;SDS011;1840;48.892;15.312;2023-09-30T08:32:35;25.83;;;10.87;;
3647;SDS011;1840;48.892;15.312;2023-09-30T08:35:04;22.57;;;11.40;;
3647;SDS011;1840;48.892;15.312;2023-09-30T08:37:35;31.50;;;12.63;;
3647;SDS011;1840;48.892;15.312;2023-09-30T08:40:03;32.90;;;11.60;;
3647;SDS011;1840;48.892;15.312;2023-09-30T08:42:33;26.50;;;11.03;;
3647;SDS011;1840;48.892;15.312;2023-09-30T08:45:01;23.17;;;10.27;;
3647;SDS011;1840;48.892;15.312;2023-09-30T08:47:32;29.57;;;10.83;;
3647;SDS011;1840;48.892;15.312;2023-09-30T08:50:02;26.37;;;10.97;;
3647;SDS011;1840;48.892;15.312;2023-09-30T08:52:34;24.83;;;10.80;;
3647;SDS011;1840;48.892;15.312;2023-09-30T08:55:06;21.63;;;10.10;;
3647;SDS011;1840;48.892;15.312;2023-09-30T08:57:36;26.47;;;10.23;;
3647;SDS011;1840;48.892;15.312;2023-09-30T09:00:07;23.93;;;10.83;;
3647;SDS011;1840;48.892;15.312;2023-09-30T09:02:39;21.07;;;9.00;;
3647;SDS011;1840;48.892;15.312;2023-09-30T09:05:08;27.43;;;10.90;;
3647;SDS011;1840;48.892;15.312;2023-09-30T09:07:39;26.17;;;10.60;;
3647;SDS011;1840;48.892;15.312;2023-09-30T09:10:09;25.07;;;9.80;;
3647;SDS011;1840;48.892;15.312;2023-09-30T09:12:40;24.87;;;11.10;;
3647;SDS011;1840;48.892;15.312;2023-09-30T09:15:19;30.40;;;10.93;;
3647;SDS011;1840;48.892;15.312;2023-09-30T09:17:49;24.47;;;9.63;;
3647;SDS011;1840;48.892;15.312;2023-09-30T09:20:19;26.07;;;10.57;;
3647;SDS011;1840;48.892;15.312;2023-09-30T09:22:50;32.80;;;12.50;;
3647;SDS011;1840;48.892;15.312;2023-09-30T09:25:20;26.43;;;10.43;;
3647;SDS011;1840;48.892;15.312;2023-09-30T09:27:50;21.87;;;9.30;;
3647;SDS011;1840;48.892;15.312;2023-09-30T09:30:21;28.20;;;10.43;;
3647;SDS011;1840;48.892;15.312;2023-09-30T09:32:51;31.07;;;11.13;;
3647;SDS011;1840;48.892;15.312;2023-09-30T09:35:26;25.73;;;9.70;;
3647;SDS011;1840;48.892;15.312;2023-09-30T09:37:57;21.17;;;8.87;;
3647;SDS011;1840;48.892;15.312;2023-09-30T09:40:26;20.00;;;8.40;;
3647;SDS011;1840;48.892;15.312;2023-09-30T09:42:57;20.13;;;8.63;;
3647;SDS011;1840;48.892;15.312;2023-09-30T09:45:27;23.27;;;9.13;;
3647;SDS011;1840;48.892;15.312;2023-09-30T09:47:59;21.63;;;9.77;;
3647;SDS011;1840;48.892;15.312;2023-09-30T09:50:28;27.73;;;10.97;;
3647;SDS011;1840;48.892;15.312;2023-09-30T09:53:01;20.73;;;8.50;;
3647;SDS011;1840;48.892;15.312;2023-09-30T09:55:32;19.23;;;7.80;;
3647;SDS011;1840;48.892;15.312;2023-09-30T09:58:01;17.57;;;7.47;;
3647;SDS011;1840;48.892;15.312;2023-09-30T10:00:31;18.27;;;7.20;;
3647;SDS011;1840;48.892;15.312;2023-09-30T10:03:01;18.23;;;7.77;;
3647;SDS011;1840;48.892;15.312;2023-09-30T10:05:30;17.60;;;6.80;;
3647;SDS011;1840;48.892;15.312;2023-09-30T10:08:01;15.73;;;6.40;;
3647;SDS011;1840;48.892;15.312;2023-09-30T10:10:35;14.77;;;6.30;;
3647;SDS011;1840;48.892;15.312;2023-09-30T10:13:04;16.90;;;7.17;;
3647;SDS011;1840;48.892;15.312;2023-09-30T10:15:37;16.40;;;6.90;;
3647;SDS011;1840;48.892;15.312;2023-09-30T10:18:07;17.40;;;7.10;;
3647;SDS011;1840;48.892;15.312;2023-09-30T10:20:41;13.83;;;6.40;;
3647;SDS011;1840;48.892;15.312;2023-09-30T10:23:19;17.73;;;7.23;;
3647;SDS011;1840;48.892;15.312;2023-09-30T10:25:49;14.60;;;6.30;;
3647;SDS011;1840;48.892;15.312;2023-09-30T10:28:37;18.37;;;7.30;;
3647;SDS011;1840;48.892;15.312;2023-09-30T10:31:08;18.20;;;7.20;;
3647;SDS011;1840;48.892;15.312;2023-09-30T10:36:39;18.87;;;8.07;;
3647;SDS011;1840;48.892;15.312;2023-09-30T10:39:10;18.93;;;8.63;;
3647;SDS011;1840;48.892;15.312;2023-09-30T10:41:50;19.20;;;8.90;;
3647;SDS011;1840;48.892;15.312;2023-09-30T10:44:34;19.63;;;8.63;;
3647;SDS011;1840;48.892;15.312;2023-09-30T10:50:02;18.90;;;8.20;;
3647;SDS011;1840;48.892;15.312;2023-09-30T10:52:31;21.10;;;8.30;;
3647;SDS011;1840;48.892;15.312;2023-09-30T10:55:04;20.73;;;8.63;;
3647;SDS011;1840;48.892;15.312;2023-09-30T10:57:33;16.60;;;8.03;;
3647;SDS011;1840;48.892;15.312;2023-09-30T11:00:08;21.00;;;8.80;;
3647;SDS011;1840;48.892;15.312;2023-09-30T11:02:49;18.90;;;7.30;;
3647;SDS011;1840;48.892;15.312;2023-09-30T11:05:20;15.60;;;6.27;;
3647;SDS011;1840;48.892;15.312;2023-09-30T11:08:06;18.20;;;6.50;;
3647;SDS011;1840;48.892;15.312;2023-09-30T11:10:38;19.13;;;7.00;;
3647;SDS011;1840;48.892;15.312;2023-09-30T11:13:23;15.37;;;6.30;;
3647;SDS011;1840;48.892;15.312;2023-09-30T11:15:59;15.47;;;6.10;;
3647;SDS011;1840;48.892;15.312;2023-09-30T11:18:28;15.50;;;6.70;;
3647;SDS011;1840;48.892;15.312;2023-09-30T11:21:08;15.57;;;6.97;;
3647;SDS011;1840;48.892;15.312;2023-09-30T11:23:40;18.30;;;6.57;;
3647;SDS011;1840;48.892;15.312;2023-09-30T11:26:10;14.50;;;6.13;;
3647;SDS011;1840;48.892;15.312;2023-09-30T11:28:40;11.00;;;4.70;;
3647;SDS011;1840;48.892;15.312;2023-09-30T11:31:10;11.50;;;4.50;;
3647;SDS011;1840;48.892;15.312;2023-09-30T11:33:50;10.80;;;4.30;;
3647;SDS011;1840;48.892;15.312;2023-09-30T11:36:19;8.57;;;4.20;;
3647;SDS011;1840;48.892;15.312;2023-09-30T11:38:49;7.83;;;4.17;;
3647;SDS011;1840;48.892;15.312;2023-09-30T11:41:20;9.43;;;3.70;;
3647;SDS011;1840;48.892;15.312;2023-09-30T11:43:59;7.20;;;3.50;;
3647;SDS011;1840;48.892;15.312;2023-09-30T11:46:31;8.67;;;3.70;;
3647;SDS011;1840;48.892;15.312;2023-09-30T11:49:01;8.97;;;3.90;;
3647;SDS011;1840;48.892;15.312;2023-09-30T11:51:41;12.00;;;4.13;;
3647;SDS011;1840;48.892;15.312;2023-09-30T11:54:13;7.30;;;3.47;;
3647;SDS011;1840;48.892;15.312;2023-09-30T11:56:44;5.77;;;2.80;;
3647;SDS011;1840;48.892;15.312;2023-09-30T11:59:13;7.20;;;3.23;;
3647;SDS011;1840;48.892;15.312;2023-09-30T12:01:42;5.53;;;3.20;;
3647;SDS011;1840;48.892;15.312;2023-09-30T12:04:21;7.60;;;3.30;;
3647;SDS011;1840;48.892;15.312;2023-09-30T12:06:49;10.13;;;4.00;;
3647;SDS011;1840;48.892;15.312;2023-09-30T12:09:18;7.37;;;3.30;;
3647;SDS011;1840;48.892;15.312;2023-09-30T12:11:53;6.60;;;3.33;;
3647;SDS011;1840;48.892;15.312;2023-09-30T12:14:24;7.07;;;3.47;;
3647;SDS011;1840;48.892;15.312;2023-09-30T12:16:52;4.37;;;2.30;;
3647;SDS011;1840;48.892;15.312;2023-09-30T12:19:21;4.70;;;3.07;;
3647;SDS011;1840;48.892;15.312;2023-09-30T12:21:49;6.33;;;3.23;;
3647;SDS011;1840;48.892;15.312;2023-09-30T12:24:17;5.40;;;3.10;;
3647;SDS011;1840;48.892;15.312;2023-09-30T12:26:50;13.43;;;4.00;;
3647;SDS011;1840;48.892;15.312;2023-09-30T12:29:20;10.03;;;4.30;;
3647;SDS011;1840;48.892;15.312;2023-09-30T12:31:50;8.87;;;3.93;;
3647;SDS011;1840;48.892;15.312;2023-09-30T12:34:21;7.93;;;3.20;;
3647;SDS011;1840;48.892;15.312;2023-09-30T12:36:50;9.40;;;4.17;;
3647;SDS011;1840;48.892;15.312;2023-09-30T12:39:18;11.67;;;3.93;;
3647;SDS011;1840;48.892;15.312;2023-09-30T12:41:51;11.23;;;4.57;;
3647;SDS011;1840;48.892;15.312;2023-09-30T12:44:21;11.40;;;4.50;;
3647;SDS011;1840;48.892;15.312;2023-09-30T12:46:50;8.30;;;3.70;;
3647;SDS011;1840;48.892;15.312;2023-09-30T12:49:18;9.63;;;3.97;;
3647;SDS011;1840;48.892;15.312;2023-09-30T12:51:46;11.10;;;4.63;;
3647;SDS011;1840;48.892;15.312;2023-09-30T12:54:15;9.70;;;4.47;;
3647;SDS011;1840;48.892;15.312;2023-09-30T12:56:45;8.30;;;3.93;;
3647;SDS011;1840;48.892;15.312;2023-09-30T12:59:14;9.97;;;4.77;;
3647;SDS011;1840;48.892;15.312;2023-09-30T13:01:45;8.47;;;3.93;;
3647;SDS011;1840;48.892;15.312;2023-09-30T13:04:14;10.00;;;3.93;;
3647;SDS011;1840;48.892;15.312;2023-09-30T13:06:42;9.00;;;3.83;;
3647;SDS011;1840;48.892;15.312;2023-09-30T13:09:11;8.27;;;3.53;;
3647;SDS011;1840;48.892;15.312;2023-09-30T13:11:39;9.00;;;3.80;;
3647;SDS011;1840;48.892;15.312;2023-09-30T13:14:08;7.87;;;4.30;;
3647;SDS011;1840;48.892;15.312;2023-09-30T13:16:36;6.17;;;2.80;;
3647;SDS011;1840;48.892;15.312;2023-09-30T13:19:05;7.50;;;2.80;;
3647;SDS011;1840;48.892;15.312;2023-09-30T13:21:33;5.07;;;2.77;;
3647;SDS011;1840;48.892;15.312;2023-09-30T13:24:01;5.50;;;3.07;;
3647;SDS011;1840;48.892;15.312;2023-09-30T13:26:33;5.40;;;2.97;;
3647;SDS011;1840;48.892;15.312;2023-09-30T13:29:01;8.10;;;3.07;;
3647;SDS011;1840;48.892;15.312;2023-09-30T13:31:31;6.10;;;2.90;;
3647;SDS011;1840;48.892;15.312;2023-09-30T13:33:59;6.47;;;2.73;;
3647;SDS011;1840;48.892;15.312;2023-09-30T13:36:31;7.80;;;3.20;;
3647;SDS011;1840;48.892;15.312;2023-09-30T13:38:59;5.60;;;3.23;;
3647;SDS011;1840;48.892;15.312;2023-09-30T13:41:27;8.33;;;3.33;;
3647;SDS011;1840;48.892;15.312;2023-09-30T13:43:55;7.70;;;3.50;;
3647;SDS011;1840;48.892;15.312;2023-09-30T13:46:23;9.63;;;3.47;;
3647;SDS011;1840;48.892;15.312;2023-09-30T13:48:54;7.90;;;3.60;;
3647;SDS011;1840;48.892;15.312;2023-09-30T13:51:23;8.80;;;4.30;;
3647;SDS011;1840;48.892;15.312;2023-09-30T13:53:53;7.77;;;3.80;;
3647;SDS011;1840;48.892;15.312;2023-09-30T13:56:21;9.73;;;3.43;;
3647;SDS011;1840;48.892;15.312;2023-09-30T13:58:49;7.07;;;3.90;;
3647;SDS011;1840;48.892;15.312;2023-09-30T14:01:18;6.60;;;2.77;;
3647;SDS011;1840;48.892;15.312;2023-09-30T14:03:46;5.80;;;2.90;;
3647;SDS011;1840;48.892;15.312;2023-09-30T14:06:15;5.13;;;2.10;;
3647;SDS011;1840;48.892;15.312;2023-09-30T14:08:43;5.47;;;2.70;;
3647;SDS011;1840;48.892;15.312;2023-09-30T14:11:12;6.00;;;2.60;;
3647;SDS011;1840;48.892;15.312;2023-09-30T14:13:40;5.47;;;2.13;;
3647;SDS011;1840;48.892;15.312;2023-09-30T14:16:08;4.47;;;2.43;;
3647;SDS011;1840;48.892;15.312;2023-09-30T14:18:37;4.47;;;2.10;;
3647;SDS011;1840;48.892;15.312;2023-09-30T14:21:05;4.07;;;2.27;;
3647;SDS011;1840;48.892;15.312;2023-09-30T14:23:34;5.93;;;2.60;;
3647;SDS011;1840;48.892;15.312;2023-09-30T14:26:05;11.50;;;2.87;;
3647;SDS011;1840;48.892;15.312;2023-09-30T14:28:38;4.93;;;2.93;;
3647;SDS011;1840;48.892;15.312;2023-09-30T14:31:06;4.90;;;2.57;;
3647;SDS011;1840;48.892;15.312;2023-09-30T14:33:35;5.23;;;3.23;;
3647;SDS011;1840;48.892;15.312;2023-09-30T14:36:03;5.13;;;2.67;;
3647;SDS011;1840;48.892;15.312;2023-09-30T14:38:33;5.70;;;3.00;;
3647;SDS011;1840;48.892;15.312;2023-09-30T14:41:01;5.10;;;2.93;;
3647;SDS011;1840;48.892;15.312;2023-09-30T14:43:33;5.47;;;3.20;;
3647;SDS011;1840;48.892;15.312;2023-09-30T14:46:02;5.40;;;2.60;;
3647;SDS011;1840;48.892;15.312;2023-09-30T14:48:31;6.43;;;2.80;;
3647;SDS011;1840;48.892;15.312;2023-09-30T14:50:59;8.73;;;2.53;;
3647;SDS011;1840;48.892;15.312;2023-09-30T14:53:27;5.77;;;2.80;;
3647;SDS011;1840;48.892;15.312;2023-09-30T14:55:55;5.17;;;2.53;;
3647;SDS011;1840;48.892;15.312;2023-09-30T14:58:23;7.77;;;3.20;;
3647;SDS011;1840;48.892;15.312;2023-09-30T15:00:51;7.30;;;3.20;;
3647;SDS011;1840;48.892;15.312;2023-09-30T15:03:21;7.10;;;3.20;;
3647;SDS011;1840;48.892;15.312;2023-09-30T15:05:56;8.20;;;3.00;;
3647;SDS011;1840;48.892;15.312;2023-09-30T15:08:25;8.33;;;4.00;;